Chesapeake Coast — WDF9286 — position and weather

sailwx.info

Track history (hours):
 
Tides and Currents Weather Stations Pressure Air Temp Water Temp Dewpoint Dewpoint Depression Visibility Wind Speed Wind Dir Waves Ship Positions

Chesapeake Coast

Owner: Dann Marine Towing, LC, Chesapeake City, MD. More information available from US FCC via Universal Licensing System.

Last reported at 2017-Oct-22 13:01 UTC. Time now 2017-Oct-22 13:28 UTC.
Position N 39°45' W 075°29'.

Length 30 m; draft 3.8 m.

Type: Tug. MMSI: 366782000.

Date/timePositionNaut miles runAvg speedWind from/ knotsBaromVisibWave heightAir tempDewpointWater temp
2017-Oct-22 13:01N 39°45' W 075°29'4 8.5
2017-Oct-22 12:31N 39°48' W 075°25'4 8.9
2017-Oct-22 12:00N 39°51' W 075°20'4 8.6
2017-Oct-22 11:30N 39°51' W 075°15'3 6.4
2017-Oct-22 11:00N 39°53' W 075°12'0 0.1
2017-Oct-22 10:30N 39°53' W 075°12'0 0.0
2017-Oct-22 10:00N 39°53' W 075°12'0 0.0
2017-Oct-22 09:30N 39°53' W 075°12'1 1.3
2017-Oct-22 09:01N 39°53' W 075°11'2 4.3
2017-Oct-22 08:30N 39°54' W 075°09'0 0.0
2017-Oct-22 08:01N 39°54' W 075°09'0 0.0
2017-Oct-22 07:30N 39°54' W 075°09'0 0.0
2017-Oct-22 07:00N 39°54' W 075°09'0 0.0
2017-Oct-22 06:31N 39°54' W 075°09'0 0.0
2017-Oct-22 06:00N 39°54' W 075°09'0 0.0
2017-Oct-22 05:30N 39°54' W 075°09'0 0.0
2017-Oct-22 05:00N 39°54' W 075°09'0 0.0
2017-Oct-22 04:30N 39°54' W 075°09'0 0.0
2017-Oct-22 04:00N 39°54' W 075°09'0 0.0
2017-Oct-22 03:31N 39°54' W 075°09'0 0.0
2017-Oct-22 03:00N 39°54' W 075°09'0 0.0
2017-Oct-22 02:30N 39°54' W 075°09'0 0.0
2017-Oct-22 02:01N 39°54' W 075°09'0 0.0
2017-Oct-22 01:31N 39°54' W 075°09'0 0.0
2017-Oct-22 01:00N 39°54' W 075°09'0 0.0
2017-Oct-22 00:30N 39°54' W 075°09'0 0.0
2017-Oct-22 00:01N 39°54' W 075°09'0 0.0
2017-Oct-21 23:31N 39°54' W 075°09'0 0.0
2017-Oct-21 23:01N 39°54' W 075°09'0 0.0
2017-Oct-21 22:31N 39°54' W 075°09'0 0.0
2017-Oct-21 22:00N 39°54' W 075°09'0 0.0
2017-Oct-21 21:31N 39°54' W 075°09'0 0.0
2017-Oct-21 21:00N 39°54' W 075°09'0 0.0
2017-Oct-21 20:30N 39°54' W 075°09'0 0.0
2017-Oct-21 20:01N 39°54' W 075°09'1 2.8
2017-Oct-21 19:30N 39°55' W 075°08'0 0.0
2017-Oct-21 19:00N 39°55' W 075°08'0 0.0
2017-Oct-21 18:30N 39°55' W 075°08'0 0.0
2017-Oct-21 18:01N 39°55' W 075°07'0 0.2
2017-Oct-21 17:30N 39°55' W 075°08'0 0.0
2017-Oct-21 17:00N 39°55' W 075°08'0 0.0
2017-Oct-21 16:30N 39°55' W 075°08'0 0.0
2017-Oct-21 16:00N 39°55' W 075°08'0 0.0
2017-Oct-21 15:30N 39°55' W 075°08'0 0.0
2017-Oct-21 15:01N 39°55' W 075°08'0 0.0
2017-Oct-21 14:30N 39°55' W 075°08'1 1.3
2017-Oct-21 13:30N 39°54' W 075°08'4 7.6
2017-Oct-21 13:01N 39°52' W 075°13'1 2.9
2017-Oct-21 12:31N 39°53' W 075°11'3 6.5
2017-Oct-21 12:01N 39°55' W 075°08'0 0.0
2017-Oct-21 11:30N 39°55' W 075°08'0 0.0
2017-Oct-21 11:01N 39°55' W 075°08'0 0.0
2017-Oct-21 10:31N 39°55' W 075°08'0 0.0
2017-Oct-21 10:00N 39°55' W 075°08'0 0.0
2017-Oct-21 09:31N 39°55' W 075°08'0 0.0
2017-Oct-21 09:01N 39°55' W 075°08'0 0.0
2017-Oct-21 08:30N 39°55' W 075°08'0 0.0
2017-Oct-21 08:01N 39°55' W 075°08'0 0.0
2017-Oct-21 07:31N 39°55' W 075°08'0 0.0
2017-Oct-21 07:00N 39°55' W 075°08'0 0.0
2017-Oct-21 06:31N 39°55' W 075°08'0 0.0
2017-Oct-21 06:00N 39°55' W 075°08'0 0.0
2017-Oct-21 05:30N 39°55' W 075°08'0 0.0
2017-Oct-21 05:00N 39°55' W 075°08'0 0.0
2017-Oct-21 04:30N 39°55' W 075°08'0 0.0
2017-Oct-21 04:00N 39°55' W 075°08'0 0.0
2017-Oct-21 03:31N 39°55' W 075°08'0 0.0
2017-Oct-21 03:00N 39°55' W 075°08'0 0.0
2017-Oct-21 02:30N 39°55' W 075°08'0 0.0
2017-Oct-21 02:01N 39°55' W 075°08'0 0.0
2017-Oct-21 01:30N 39°55' W 075°08'0 0.0
2017-Oct-21 01:00N 39°55' W 075°08'0 0.0
2017-Oct-21 00:31N 39°55' W 075°08'0 0.0
2017-Oct-21 00:00N 39°55' W 075°08'0 0.0
2017-Oct-20 23:31N 39°55' W 075°08'2 3.9
2017-Oct-20 23:01N 39°53' W 075°08'3 5.8
2017-Oct-20 22:30N 39°53' W 075°12'1 2.0
2017-Oct-20 22:00N 39°52' W 075°13'1 2.3
2017-Oct-20 21:30N 39°51' W 075°14'2 3.0
2017-Oct-20 21:01N 39°51' W 075°16'2 3.4
2017-Oct-20 20:30N 39°51' W 075°19'2 3.7
2017-Oct-20 20:01N 39°51' W 075°21'5 9.1
2017-Oct-20 19:30N 39°48' W 075°26'5 9.5
2017-Oct-20 19:00N 39°44' W 075°30'5 9.6
2017-Oct-20 18:31N 39°40' W 075°32'4 8.6
2017-Oct-20 18:00N 39°36' W 075°34'3 5.1
2017-Oct-20 17:30N 39°33' W 075°35'3 6.5
2017-Oct-20 17:00N 39°33' W 075°39'3 6.4
2017-Oct-20 16:30N 39°33' W 075°44'3 6.8
2017-Oct-20 16:00N 39°32' W 075°48'3 5.5
2017-Oct-20 15:30N 39°32' W 075°51'4 7.7
2017-Oct-20 15:00N 39°30' W 075°56'8 8.2
2017-Oct-20 14:00N 39°24' W 076°03'4 8.5
2017-Oct-20 13:30N 39°22' W 076°08'4 8.6
2017-Oct-20 13:00N 39°19' W 076°12'4 8.4
2017-Oct-20 12:31N 39°15' W 076°14'4 7.8
2017-Oct-20 12:00N 39°12' W 076°16'4 8.2
2017-Oct-20 11:30N 39°09' W 076°19'4 8.8
2017-Oct-20 11:00N 39°04' W 076°20'5 9.2
2017-Oct-20 10:30N 38°60' W 076°23'5 9.3
2017-Oct-20 10:01N 38°56' W 076°25'5 9.5
2017-Oct-20 09:30N 38°51' W 076°26'5 9.5
2017-Oct-20 09:00N 38°46' W 076°27'10 9.4
2017-Oct-20 07:55N 38°36' W 076°28'4 9.3
2017-Oct-20 07:31N 38°32' W 076°27'5 9.5
2017-Oct-20 07:00N 38°28' W 076°24'5 9.5
2017-Oct-20 06:30N 38°24' W 076°21'16 9.4
2017-Oct-20 04:50N 38°08' W 076°17'3 9.5
2017-Oct-20 04:28N 38°05' W 076°16'4 9.5
2017-Oct-20 04:00N 38°01' W 076°14'5 9.9
2017-Oct-20 03:30N 37°56' W 076°12'5 9.3
2017-Oct-20 03:01N 37°52' W 076°10'510.0
2017-Oct-20 02:30N 37°47' W 076°12'50 8.4
2017-Oct-19 20:35N 36°57' W 076°20'1 8.0
2017-Oct-19 20:30N 36°57' W 076°20'1 1.6
2017-Oct-19 19:59N 36°56' W 076°20'0 0.1
2017-Oct-19 19:30N 36°56' W 076°20'0 0.0
2017-Oct-19 19:00N 36°56' W 076°20'0 0.0
2017-Oct-19 18:19N 36°56' W 076°20'0 0.0
2017-Oct-19 17:02N 36°56' W 076°20'0 0.0
2017-Oct-19 17:00N 36°56' W 076°20'0 0.0
2017-Oct-19 14:48N 36°56' W 076°20'0 0.0
2017-Oct-19 14:30N 36°56' W 076°20'0 0.0
2017-Oct-19 14:00N 36°56' W 076°20'0 0.0
2017-Oct-19 13:30N 36°56' W 076°20'0 0.0
2017-Oct-19 13:00N 36°56' W 076°20'0 0.0
2017-Oct-19 12:30N 36°56' W 076°20'0 0.0
2017-Oct-19 12:00N 36°56' W 076°20'0 0.0
2017-Oct-19 11:30N 36°56' W 076°20'0 0.0
2017-Oct-19 11:00N 36°56' W 076°20'0 0.0
2017-Oct-19 10:30N 36°56' W 076°20'0 0.0
2017-Oct-19 10:00N 36°56' W 076°20'0 0.0
2017-Oct-19 09:30N 36°56' W 076°20'0 0.0
2017-Oct-19 09:00N 36°56' W 076°20'0 0.0
2017-Oct-19 08:30N 36°56' W 076°20'0 0.0
2017-Oct-19 08:00N 36°56' W 076°20'0 0.0
2017-Oct-19 07:30N 36°56' W 076°20'0 0.0
2017-Oct-19 07:00N 36°56' W 076°20'0 0.0
2017-Oct-19 06:30N 36°56' W 076°20'0 0.0
2017-Oct-19 06:00N 36°56' W 076°20'0 0.0
2017-Oct-19 05:28N 36°56' W 076°20'0 0.0
2017-Oct-19 05:00N 36°56' W 076°20'0 0.0
2017-Oct-19 04:30N 36°56' W 076°20'0 0.0
2017-Oct-19 04:00N 36°56' W 076°20'0 0.0
2017-Oct-19 03:30N 36°56' W 076°20'0 0.0
2017-Oct-19 03:00N 36°56' W 076°20'0 0.3
2017-Oct-19 02:30N 36°56' W 076°20'4 8.0
2017-Oct-19 02:00N 36°52' W 076°19'3 5.3
2017-Oct-19 01:30N 36°50' W 076°17'0 0.1
2017-Oct-19 01:00N 36°50' W 076°17'0 0.0
2017-Oct-19 00:30N 36°50' W 076°17'0 0.0
2017-Oct-19 00:00N 36°50' W 076°17'0 0.0
2017-Oct-18 23:30N 36°50' W 076°17'0 0.3
2017-Oct-18 22:58N 36°50' W 076°17'0 0.0
2017-Oct-18 22:30N 36°50' W 076°17'0 0.0
2017-Oct-18 22:00N 36°50' W 076°17'0 0.0
2017-Oct-18 21:22N 36°50' W 076°17'0 0.0
2017-Oct-18 21:00N 36°50' W 076°17'0 0.0
2017-Oct-18 18:46N 36°50' W 076°17'0 0.0
2017-Oct-18 18:11N 36°50' W 076°17'0 0.0
2017-Oct-18 17:58N 36°50' W 076°17'0 0.0
2017-Oct-18 17:17N 36°50' W 076°17'1 1.9
2017-Oct-18 17:00N 36°51' W 076°18'0 0.2
2017-Oct-18 16:30N 36°50' W 076°18'3 4.2
2017-Oct-18 15:55N 36°48' W 076°18'2 4.5
2017-Oct-18 15:30N 36°50' W 076°18'3 7.1
2017-Oct-18 15:00N 36°53' W 076°20'6 0.8
2017-Oct-18 07:12N 36°59' W 076°20'0 0.0
2017-Oct-18 07:00N 36°59' W 076°20'0 0.0
2017-Oct-18 06:15N 36°59' W 076°20'2 0.7
2017-Oct-18 03:46N 36°57' W 076°20'2 8.3
2017-Oct-18 03:29N 36°54' W 076°20'5 7.6
2017-Oct-18 02:47N 36°50' W 076°18'2 5.2
2017-Oct-18 02:28N 36°48' W 076°18'0 0.4
2017-Oct-18 01:53N 36°48' W 076°18'0 0.0
2017-Oct-18 01:27N 36°48' W 076°18'0 0.0
2017-Oct-18 00:56N 36°48' W 076°18'0 0.0
2017-Oct-17 23:53N 36°48' W 076°18'0 0.0
2017-Oct-17 23:25N 36°48' W 076°18'0 0.0
2017-Oct-17 23:00N 36°48' W 076°18'0 0.0
2017-Oct-17 22:30N 36°48' W 076°18'0 0.0
2017-Oct-17 21:59N 36°48' W 076°18'0 0.5
2017-Oct-17 21:29N 36°48' W 076°18'1 1.3
2017-Oct-17 20:59N 36°49' W 076°17'8 0.6
2017-Oct-17 08:20N 36°56' W 076°20'0 0.0
2017-Oct-17 08:00N 36°56' W 076°20'0 0.0
2017-Oct-17 07:30N 36°56' W 076°20'0 0.0
2017-Oct-17 07:00N 36°56' W 076°20'0 0.0
2017-Oct-17 06:30N 36°56' W 076°20'0 0.0
2017-Oct-17 06:00N 36°56' W 076°20'0 0.0
2017-Oct-17 05:30N 36°56' W 076°20'0 0.0
2017-Oct-17 05:00N 36°56' W 076°20'0 0.0
2017-Oct-17 04:30N 36°56' W 076°20'0 0.0
2017-Oct-17 04:00N 36°56' W 076°20'0 0.0
2017-Oct-17 03:30N 36°56' W 076°20'0 0.0
2017-Oct-17 03:00N 36°56' W 076°20'0 0.0
2017-Oct-17 02:30N 36°56' W 076°20'0 0.0
2017-Oct-17 02:00N 36°56' W 076°20'0 0.0
2017-Oct-17 00:36N 36°56' W 076°20'0 0.0
2017-Oct-17 00:30N 36°56' W 076°20'0 0.0
2017-Oct-17 00:00N 36°56' W 076°20'0 0.0
2017-Oct-16 23:30N 36°56' W 076°20'0 0.0
2017-Oct-16 23:00N 36°56' W 076°20'0 0.0
2017-Oct-16 22:30N 36°56' W 076°20'0 0.0
2017-Oct-16 22:00N 36°56' W 076°20'0 0.0
2017-Oct-16 21:30N 36°56' W 076°20'0 0.0
2017-Oct-16 21:00N 36°56' W 076°20'0 0.0
2017-Oct-16 20:30N 36°56' W 076°20'0 0.0
2017-Oct-16 20:00N 36°56' W 076°20'0 0.0
2017-Oct-16 19:30N 36°56' W 076°20'0 0.0
2017-Oct-16 19:00N 36°56' W 076°20'0 0.0
2017-Oct-16 18:30N 36°56' W 076°20'0 0.0
2017-Oct-16 18:00N 36°56' W 076°20'0 0.0
2017-Oct-16 13:38N 36°56' W 076°20'0 0.0
2017-Oct-16 13:18N 36°56' W 076°20'0 0.0
2017-Oct-16 12:59N 36°56' W 076°20'0 0.0
2017-Oct-16 12:21N 36°56' W 076°20'0 0.0
2017-Oct-16 11:53N 36°56' W 076°20'0 0.0
2017-Oct-16 11:30N 36°56' W 076°20'0 0.0
2017-Oct-16 11:00N 36°56' W 076°20'0 0.0
2017-Oct-16 10:23N 36°56' W 076°20'0 0.0
2017-Oct-16 09:57N 36°56' W 076°20'0 0.0
2017-Oct-16 09:14N 36°56' W 076°20'0 0.0
2017-Oct-16 08:54N 36°56' W 076°20'0 0.0
2017-Oct-16 08:13N 36°56' W 076°20'0 0.0
2017-Oct-16 08:00N 36°56' W 076°20'0 0.0
2017-Oct-16 07:29N 36°56' W 076°20'0 0.0
2017-Oct-16 07:00N 36°56' W 076°20'0 0.0
2017-Oct-16 06:05N 36°56' W 076°20'0 0.0
2017-Oct-16 06:00N 36°56' W 076°20'0 0.0
2017-Oct-16 02:59N 36°56' W 076°20'0 0.0
2017-Oct-16 02:30N 36°56' W 076°20'0 0.0
2017-Oct-16 02:00N 36°56' W 076°20'0 0.0
2017-Oct-16 01:30N 36°56' W 076°20'0 0.0
2017-Oct-16 01:00N 36°56' W 076°20'0 0.0
2017-Oct-16 00:30N 36°56' W 076°20'0 0.0
2017-Oct-16 00:00N 36°56' W 076°20'0 0.0
2017-Oct-15 23:30N 36°56' W 076°20'0 0.0
2017-Oct-15 23:00N 36°56' W 076°20'0 0.0
2017-Oct-15 22:30N 36°56' W 076°20'0 0.0
2017-Oct-15 22:00N 36°56' W 076°20'0 0.0
2017-Oct-15 21:30N 36°56' W 076°20'0 0.0
2017-Oct-15 21:00N 36°56' W 076°20'0 0.0
2017-Oct-15 20:27N 36°56' W 076°20'0 0.0
2017-Oct-15 19:59N 36°56' W 076°20'0 0.0
2017-Oct-15 19:30N 36°56' W 076°20'0 0.0
2017-Oct-15 15:46N 36°56' W 076°20'0 0.0
2017-Oct-15 15:30N 36°56' W 076°20'0 0.0
2017-Oct-15 15:00N 36°56' W 076°20'0 0.0
2017-Oct-15 14:00N 36°56' W 076°20'0 0.0
2017-Oct-15 13:30N 36°56' W 076°20'0 0.0
2017-Oct-15 06:33N 36°56' W 076°20'0 0.0
2017-Oct-15 06:30N 36°56' W 076°20'0 0.0
2017-Oct-15 06:00N 36°56' W 076°20'0 0.0
2017-Oct-15 05:30N 36°56' W 076°20'0 0.0
2017-Oct-15 05:00N 36°56' W 076°20'0 0.0
2017-Oct-15 04:28N 36°56' W 076°20'0 0.0
2017-Oct-15 04:00N 36°56' W 076°20'0 0.0
2017-Oct-15 03:30N 36°56' W 076°20'0 0.0
2017-Oct-15 03:00N 36°56' W 076°20'0 0.0
2017-Oct-15 02:30N 36°56' W 076°20'0 0.0
2017-Oct-15 02:00N 36°56' W 076°20'0 0.0
2017-Oct-15 01:30N 36°56' W 076°20'0 0.0
2017-Oct-15 01:00N 36°56' W 076°20'0 0.0
2017-Oct-15 00:29N 36°56' W 076°20'0 0.0
2017-Oct-14 19:49N 36°56' W 076°20'0 0.0
2017-Oct-14 18:16N 36°56' W 076°20'0 0.0
2017-Oct-14 18:00N 36°56' W 076°20'0 0.0
2017-Oct-14 17:29N 36°56' W 076°20'0 0.0
2017-Oct-14 17:00N 36°56' W 076°20'0 0.0
2017-Oct-14 15:06N 36°56' W 076°20'0 0.0
2017-Oct-14 13:16N 36°56' W 076°20'0 0.0
2017-Oct-14 13:00N 36°56' W 076°20'0 0.0
2017-Oct-14 12:30N 36°56' W 076°20'0 0.1
2017-Oct-14 10:24N 36°56' W 076°20'1 3.0
2017-Oct-14 09:57N 36°57' W 076°20'107 7.3
2017-Oct-13 19:20N 38°44' W 076°27'3 8.3
2017-Oct-13 19:00N 38°47' W 076°27'4 8.4
2017-Oct-13 18:30N 38°51' W 076°26'4 8.4
2017-Oct-13 18:00N 38°55' W 076°25'4 7.7
2017-Oct-13 17:30N 38°59' W 076°23'4 7.4
2017-Oct-13 17:00N 39°02' W 076°23'4 7.8
2017-Oct-13 16:30N 39°06' W 076°24'4 7.6
2017-Oct-13 16:00N 39°10' W 076°25'4 7.5
2017-Oct-13 15:30N 39°12' W 076°29'4 7.6
2017-Oct-13 15:00N 39°14' W 076°33'2 3.7
2017-Oct-13 14:30N 39°16' W 076°34'0 0.1
2017-Oct-13 14:00N 39°16' W 076°34'0 0.0
2017-Oct-13 13:30N 39°16' W 076°34'0 0.0
2017-Oct-13 13:00N 39°16' W 076°34'0 0.0
2017-Oct-13 12:30N 39°16' W 076°34'0 0.0
2017-Oct-13 12:00N 39°16' W 076°34'0 0.0
2017-Oct-13 11:30N 39°16' W 076°34'0 0.0
2017-Oct-13 11:00N 39°16' W 076°34'0 0.0
2017-Oct-13 10:30N 39°16' W 076°34'0 0.0
2017-Oct-13 10:00N 39°16' W 076°34'0 0.0
2017-Oct-13 09:30N 39°16' W 076°34'0 0.0
2017-Oct-13 09:00N 39°16' W 076°34'0 0.0
2017-Oct-13 08:30N 39°16' W 076°34'0 0.0
2017-Oct-13 08:00N 39°16' W 076°34'0 0.0
2017-Oct-13 07:30N 39°16' W 076°34'0 0.0
2017-Oct-13 07:00N 39°16' W 076°34'0 0.0
2017-Oct-13 06:30N 39°16' W 076°34'0 0.0
2017-Oct-13 06:00N 39°16' W 076°34'0 0.0
2017-Oct-13 05:30N 39°16' W 076°34'0 0.0
2017-Oct-13 05:00N 39°16' W 076°34'0 0.0
2017-Oct-13 04:30N 39°16' W 076°34'0 0.0
2017-Oct-13 04:00N 39°16' W 076°34'0 0.0
2017-Oct-13 03:30N 39°16' W 076°34'0 0.0
2017-Oct-13 03:00N 39°16' W 076°34'0 0.0
2017-Oct-13 02:30N 39°16' W 076°34'0 0.0
2017-Oct-13 02:00N 39°16' W 076°34'0 0.0
2017-Oct-13 01:30N 39°16' W 076°34'0 0.0
2017-Oct-13 01:00N 39°16' W 076°34'0 0.0
2017-Oct-13 00:30N 39°16' W 076°34'0 0.0
2017-Oct-13 00:00N 39°16' W 076°34'0 0.0
2017-Oct-12 23:30N 39°16' W 076°34'0 0.0
2017-Oct-12 23:00N 39°16' W 076°34'0 0.0
2017-Oct-12 22:30N 39°16' W 076°34'0 0.0
2017-Oct-12 22:00N 39°16' W 076°34'0 0.0
2017-Oct-12 21:30N 39°16' W 076°34'0 0.0
2017-Oct-12 21:00N 39°16' W 076°34'0 0.0
2017-Oct-12 20:30N 39°16' W 076°34'0 0.0
2017-Oct-12 20:00N 39°16' W 076°34'0 0.0
2017-Oct-12 19:30N 39°16' W 076°34'0 0.0
2017-Oct-12 19:00N 39°16' W 076°34'0 0.0
2017-Oct-12 18:30N 39°16' W 076°34'0 0.0
2017-Oct-12 18:00N 39°16' W 076°34'0 0.0
2017-Oct-12 17:30N 39°16' W 076°34'0 0.0
2017-Oct-12 17:00N 39°16' W 076°34'0 0.0
2017-Oct-12 16:30N 39°16' W 076°34'0 0.0
2017-Oct-12 16:00N 39°16' W 076°34'0 0.0
2017-Oct-12 15:30N 39°16' W 076°34'0 0.0
2017-Oct-12 15:00N 39°16' W 076°34'0 0.1
2017-Oct-12 14:30N 39°16' W 076°34'0 0.5
2017-Oct-12 14:00N 39°16' W 076°34'3 6.4
2017-Oct-12 13:30N 39°13' W 076°32'  
Track history (hours):
 
Tides and Currents Weather Stations Pressure Air Temp Water Temp Dewpoint Dewpoint Depression Visibility Wind Speed Wind Dir Waves Ship Positions

Chesapeake Coast

Owner: Dann Marine Towing, LC, Chesapeake City, MD. More information available from US FCC via Universal Licensing System.

Last reported at 2017-Oct-22 13:01 UTC. Time now 2017-Oct-22 13:28 UTC.
Position N 39°45' W 075°29'.

Length 30 m; draft 3.8 m.

Type: Tug. MMSI: 366782000.

Date/timePositionNaut miles runAvg speedWind from/ knotsBaromVisibWave heightAir tempDewpointWater temp
2017-Oct-22 13:01N 39°45' W 075°29'4 8.5
2017-Oct-22 12:31N 39°48' W 075°25'4 8.9
2017-Oct-22 12:00N 39°51' W 075°20'4 8.6
2017-Oct-22 11:30N 39°51' W 075°15'3 6.4
2017-Oct-22 11:00N 39°53' W 075°12'0 0.1
2017-Oct-22 10:30N 39°53' W 075°12'0 0.0
2017-Oct-22 10:00N 39°53' W 075°12'0 0.0
2017-Oct-22 09:30N 39°53' W 075°12'1 1.3
2017-Oct-22 09:01N 39°53' W 075°11'2 4.3
2017-Oct-22 08:30N 39°54' W 075°09'0 0.0
2017-Oct-22 08:01N 39°54' W 075°09'0 0.0
2017-Oct-22 07:30N 39°54' W 075°09'0 0.0
2017-Oct-22 07:00N 39°54' W 075°09'0 0.0
2017-Oct-22 06:31N 39°54' W 075°09'0 0.0
2017-Oct-22 06:00N 39°54' W 075°09'0 0.0
2017-Oct-22 05:30N 39°54' W 075°09'0 0.0
2017-Oct-22 05:00N 39°54' W 075°09'0 0.0
2017-Oct-22 04:30N 39°54' W 075°09'0 0.0
2017-Oct-22 04:00N 39°54' W 075°09'0 0.0
2017-Oct-22 03:31N 39°54' W 075°09'0 0.0
2017-Oct-22 03:00N 39°54' W 075°09'0 0.0
2017-Oct-22 02:30N 39°54' W 075°09'0 0.0
2017-Oct-22 02:01N 39°54' W 075°09'0 0.0
2017-Oct-22 01:31N 39°54' W 075°09'0 0.0
2017-Oct-22 01:00N 39°54' W 075°09'0 0.0
2017-Oct-22 00:30N 39°54' W 075°09'0 0.0
2017-Oct-22 00:01N 39°54' W 075°09'0 0.0
2017-Oct-21 23:31N 39°54' W 075°09'0 0.0
2017-Oct-21 23:01N 39°54' W 075°09'0 0.0
2017-Oct-21 22:31N 39°54' W 075°09'0 0.0
2017-Oct-21 22:00N 39°54' W 075°09'0 0.0
2017-Oct-21 21:31N 39°54' W 075°09'0 0.0
2017-Oct-21 21:00N 39°54' W 075°09'0 0.0
2017-Oct-21 20:30N 39°54' W 075°09'0 0.0
2017-Oct-21 20:01N 39°54' W 075°09'1 2.8
2017-Oct-21 19:30N 39°55' W 075°08'0 0.0
2017-Oct-21 19:00N 39°55' W 075°08'0 0.0
2017-Oct-21 18:30N 39°55' W 075°08'0 0.0
2017-Oct-21 18:01N 39°55' W 075°07'0 0.2
2017-Oct-21 17:30N 39°55' W 075°08'0 0.0
2017-Oct-21 17:00N 39°55' W 075°08'0 0.0
2017-Oct-21 16:30N 39°55' W 075°08'0 0.0
2017-Oct-21 16:00N 39°55' W 075°08'0 0.0
2017-Oct-21 15:30N 39°55' W 075°08'0 0.0
2017-Oct-21 15:01N 39°55' W 075°08'0 0.0
2017-Oct-21 14:30N 39°55' W 075°08'1 1.3
2017-Oct-21 13:30N 39°54' W 075°08'4 7.6
2017-Oct-21 13:01N 39°52' W 075°13'1 2.9
2017-Oct-21 12:31N 39°53' W 075°11'3 6.5
2017-Oct-21 12:01N 39°55' W 075°08'0 0.0
2017-Oct-21 11:30N 39°55' W 075°08'0 0.0
2017-Oct-21 11:01N 39°55' W 075°08'0 0.0
2017-Oct-21 10:31N 39°55' W 075°08'0 0.0
2017-Oct-21 10:00N 39°55' W 075°08'0 0.0
2017-Oct-21 09:31N 39°55' W 075°08'0 0.0
2017-Oct-21 09:01N 39°55' W 075°08'0 0.0
2017-Oct-21 08:30N 39°55' W 075°08'0 0.0
2017-Oct-21 08:01N 39°55' W 075°08'0 0.0
2017-Oct-21 07:31N 39°55' W 075°08'0 0.0
2017-Oct-21 07:00N 39°55' W 075°08'0 0.0
2017-Oct-21 06:31N 39°55' W 075°08'0 0.0
2017-Oct-21 06:00N 39°55' W 075°08'0 0.0
2017-Oct-21 05:30N 39°55' W 075°08'0 0.0
2017-Oct-21 05:00N 39°55' W 075°08'0 0.0
2017-Oct-21 04:30N 39°55' W 075°08'0 0.0
2017-Oct-21 04:00N 39°55' W 075°08'0 0.0
2017-Oct-21 03:31N 39°55' W 075°08'0 0.0
2017-Oct-21 03:00N 39°55' W 075°08'0 0.0
2017-Oct-21 02:30N 39°55' W 075°08'0 0.0
2017-Oct-21 02:01N 39°55' W 075°08'0 0.0
2017-Oct-21 01:30N 39°55' W 075°08'0 0.0
2017-Oct-21 01:00N 39°55' W 075°08'0 0.0
2017-Oct-21 00:31N 39°55' W 075°08'0 0.0
2017-Oct-21 00:00N 39°55' W 075°08'0 0.0
2017-Oct-20 23:31N 39°55' W 075°08'2 3.9
2017-Oct-20 23:01N 39°53' W 075°08'3 5.8
2017-Oct-20 22:30N 39°53' W 075°12'1 2.0
2017-Oct-20 22:00N 39°52' W 075°13'1 2.3
2017-Oct-20 21:30N 39°51' W 075°14'2 3.0
2017-Oct-20 21:01N 39°51' W 075°16'2 3.4
2017-Oct-20 20:30N 39°51' W 075°19'2 3.7
2017-Oct-20 20:01N 39°51' W 075°21'5 9.1
2017-Oct-20 19:30N 39°48' W 075°26'5 9.5
2017-Oct-20 19:00N 39°44' W 075°30'5 9.6
2017-Oct-20 18:31N 39°40' W 075°32'4 8.6
2017-Oct-20 18:00N 39°36' W 075°34'3 5.1
2017-Oct-20 17:30N 39°33' W 075°35'3 6.5
2017-Oct-20 17:00N 39°33' W 075°39'3 6.4
2017-Oct-20 16:30N 39°33' W 075°44'3 6.8
2017-Oct-20 16:00N 39°32' W 075°48'3 5.5
2017-Oct-20 15:30N 39°32' W 075°51'4 7.7
2017-Oct-20 15:00N 39°30' W 075°56'8 8.2
2017-Oct-20 14:00N 39°24' W 076°03'4 8.5
2017-Oct-20 13:30N 39°22' W 076°08'4 8.6
2017-Oct-20 13:00N 39°19' W 076°12'4 8.4
2017-Oct-20 12:31N 39°15' W 076°14'4 7.8
2017-Oct-20 12:00N 39°12' W 076°16'4 8.2
2017-Oct-20 11:30N 39°09' W 076°19'4 8.8
2017-Oct-20 11:00N 39°04' W 076°20'5 9.2
2017-Oct-20 10:30N 38°60' W 076°23'5 9.3
2017-Oct-20 10:01N 38°56' W 076°25'5 9.5
2017-Oct-20 09:30N 38°51' W 076°26'5 9.5
2017-Oct-20 09:00N 38°46' W 076°27'10 9.4
2017-Oct-20 07:55N 38°36' W 076°28'4 9.3
2017-Oct-20 07:31N 38°32' W 076°27'5 9.5
2017-Oct-20 07:00N 38°28' W 076°24'5 9.5
2017-Oct-20 06:30N 38°24' W 076°21'16 9.4
2017-Oct-20 04:50N 38°08' W 076°17'3 9.5
2017-Oct-20 04:28N 38°05' W 076°16'4 9.5
2017-Oct-20 04:00N 38°01' W 076°14'5 9.9
2017-Oct-20 03:30N 37°56' W 076°12'5 9.3
2017-Oct-20 03:01N 37°52' W 076°10'510.0
2017-Oct-20 02:30N 37°47' W 076°12'50 8.4
2017-Oct-19 20:35N 36°57' W 076°20'1 8.0
2017-Oct-19 20:30N 36°57' W 076°20'1 1.6
2017-Oct-19 19:59N 36°56' W 076°20'0 0.1
2017-Oct-19 19:30N 36°56' W 076°20'0 0.0
2017-Oct-19 19:00N 36°56' W 076°20'0 0.0
2017-Oct-19 18:19N 36°56' W 076°20'0 0.0
2017-Oct-19 17:02N 36°56' W 076°20'0 0.0
2017-Oct-19 17:00N 36°56' W 076°20'0 0.0
2017-Oct-19 14:48N 36°56' W 076°20'0 0.0
2017-Oct-19 14:30N 36°56' W 076°20'0 0.0
2017-Oct-19 14:00N 36°56' W 076°20'0 0.0
2017-Oct-19 13:30N 36°56' W 076°20'0 0.0
2017-Oct-19 13:00N 36°56' W 076°20'0 0.0
2017-Oct-19 12:30N 36°56' W 076°20'0 0.0
2017-Oct-19 12:00N 36°56' W 076°20'0 0.0
2017-Oct-19 11:30N 36°56' W 076°20'0 0.0
2017-Oct-19 11:00N 36°56' W 076°20'0 0.0
2017-Oct-19 10:30N 36°56' W 076°20'0 0.0
2017-Oct-19 10:00N 36°56' W 076°20'0 0.0
2017-Oct-19 09:30N 36°56' W 076°20'0 0.0
2017-Oct-19 09:00N 36°56' W 076°20'0 0.0
2017-Oct-19 08:30N 36°56' W 076°20'0 0.0
2017-Oct-19 08:00N 36°56' W 076°20'0 0.0
2017-Oct-19 07:30N 36°56' W 076°20'0 0.0
2017-Oct-19 07:00N 36°56' W 076°20'0 0.0
2017-Oct-19 06:30N 36°56' W 076°20'0 0.0
2017-Oct-19 06:00N 36°56' W 076°20'0 0.0
2017-Oct-19 05:28N 36°56' W 076°20'0 0.0
2017-Oct-19 05:00N 36°56' W 076°20'0 0.0
2017-Oct-19 04:30N 36°56' W 076°20'0 0.0
2017-Oct-19 04:00N 36°56' W 076°20'0 0.0
2017-Oct-19 03:30N 36°56' W 076°20'0 0.0
2017-Oct-19 03:00N 36°56' W 076°20'0 0.3
2017-Oct-19 02:30N 36°56' W 076°20'4 8.0
2017-Oct-19 02:00N 36°52' W 076°19'3 5.3
2017-Oct-19 01:30N 36°50' W 076°17'0 0.1
2017-Oct-19 01:00N 36°50' W 076°17'0 0.0
2017-Oct-19 00:30N 36°50' W 076°17'0 0.0
2017-Oct-19 00:00N 36°50' W 076°17'0 0.0
2017-Oct-18 23:30N 36°50' W 076°17'0 0.3
2017-Oct-18 22:58N 36°50' W 076°17'0 0.0
2017-Oct-18 22:30N 36°50' W 076°17'0 0.0
2017-Oct-18 22:00N 36°50' W 076°17'0 0.0
2017-Oct-18 21:22N 36°50' W 076°17'0 0.0
2017-Oct-18 21:00N 36°50' W 076°17'0 0.0
2017-Oct-18 18:46N 36°50' W 076°17'0 0.0
2017-Oct-18 18:11N 36°50' W 076°17'0 0.0
2017-Oct-18 17:58N 36°50' W 076°17'0 0.0
2017-Oct-18 17:17N 36°50' W 076°17'1 1.9
2017-Oct-18 17:00N 36°51' W 076°18'0 0.2
2017-Oct-18 16:30N 36°50' W 076°18'3 4.2
2017-Oct-18 15:55N 36°48' W 076°18'2 4.5
2017-Oct-18 15:30N 36°50' W 076°18'3 7.1
2017-Oct-18 15:00N 36°53' W 076°20'6 0.8
2017-Oct-18 07:12N 36°59' W 076°20'0 0.0
2017-Oct-18 07:00N 36°59' W 076°20'0 0.0
2017-Oct-18 06:15N 36°59' W 076°20'2 0.7
2017-Oct-18 03:46N 36°57' W 076°20'2 8.3
2017-Oct-18 03:29N 36°54' W 076°20'5 7.6
2017-Oct-18 02:47N 36°50' W 076°18'2 5.2
2017-Oct-18 02:28N 36°48' W 076°18'0 0.4
2017-Oct-18 01:53N 36°48' W 076°18'0 0.0
2017-Oct-18 01:27N 36°48' W 076°18'0 0.0
2017-Oct-18 00:56N 36°48' W 076°18'0 0.0
2017-Oct-17 23:53N 36°48' W 076°18'0 0.0
2017-Oct-17 23:25N 36°48' W 076°18'0 0.0
2017-Oct-17 23:00N 36°48' W 076°18'0 0.0
2017-Oct-17 22:30N 36°48' W 076°18'0 0.0
2017-Oct-17 21:59N 36°48' W 076°18'0 0.5
2017-Oct-17 21:29N 36°48' W 076°18'1 1.3
2017-Oct-17 20:59N 36°49' W 076°17'8 0.6
2017-Oct-17 08:20N 36°56' W 076°20'0 0.0
2017-Oct-17 08:00N 36°56' W 076°20'0 0.0
2017-Oct-17 07:30N 36°56' W 076°20'0 0.0
2017-Oct-17 07:00N 36°56' W 076°20'0 0.0
2017-Oct-17 06:30N 36°56' W 076°20'0 0.0
2017-Oct-17 06:00N 36°56' W 076°20'0 0.0
2017-Oct-17 05:30N 36°56' W 076°20'0 0.0
2017-Oct-17 05:00N 36°56' W 076°20'0 0.0
2017-Oct-17 04:30N 36°56' W 076°20'0 0.0
2017-Oct-17 04:00N 36°56' W 076°20'0 0.0
2017-Oct-17 03:30N 36°56' W 076°20'0 0.0
2017-Oct-17 03:00N 36°56' W 076°20'0 0.0
2017-Oct-17 02:30N 36°56' W 076°20'0 0.0
2017-Oct-17 02:00N 36°56' W 076°20'0 0.0
2017-Oct-17 00:36N 36°56' W 076°20'0 0.0
2017-Oct-17 00:30N 36°56' W 076°20'0 0.0
2017-Oct-17 00:00N 36°56' W 076°20'0 0.0
2017-Oct-16 23:30N 36°56' W 076°20'0 0.0
2017-Oct-16 23:00N 36°56' W 076°20'0 0.0
2017-Oct-16 22:30N 36°56' W 076°20'0 0.0
2017-Oct-16 22:00N 36°56' W 076°20'0 0.0
2017-Oct-16 21:30N 36°56' W 076°20'0 0.0
2017-Oct-16 21:00N 36°56' W 076°20'0 0.0
2017-Oct-16 20:30N 36°56' W 076°20'0 0.0
2017-Oct-16 20:00N 36°56' W 076°20'0 0.0
2017-Oct-16 19:30N 36°56' W 076°20'0 0.0
2017-Oct-16 19:00N 36°56' W 076°20'0 0.0
2017-Oct-16 18:30N 36°56' W 076°20'0 0.0
2017-Oct-16 18:00N 36°56' W 076°20'0 0.0
2017-Oct-16 13:38N 36°56' W 076°20'0 0.0
2017-Oct-16 13:18N 36°56' W 076°20'0 0.0
2017-Oct-16 12:59N 36°56' W 076°20'0 0.0
2017-Oct-16 12:21N 36°56' W 076°20'0 0.0
2017-Oct-16 11:53N 36°56' W 076°20'0 0.0
2017-Oct-16 11:30N 36°56' W 076°20'0 0.0
2017-Oct-16 11:00N 36°56' W 076°20'0 0.0
2017-Oct-16 10:23N 36°56' W 076°20'0 0.0
2017-Oct-16 09:57N 36°56' W 076°20'0 0.0
2017-Oct-16 09:14N 36°56' W 076°20'0 0.0
2017-Oct-16 08:54N 36°56' W 076°20'0 0.0
2017-Oct-16 08:13N 36°56' W 076°20'0 0.0
2017-Oct-16 08:00N 36°56' W 076°20'0 0.0
2017-Oct-16 07:29N 36°56' W 076°20'0 0.0
2017-Oct-16 07:00N 36°56' W 076°20'0 0.0
2017-Oct-16 06:05N 36°56' W 076°20'0 0.0
2017-Oct-16 06:00N 36°56' W 076°20'0 0.0
2017-Oct-16 02:59N 36°56' W 076°20'0 0.0
2017-Oct-16 02:30N 36°56' W 076°20'0 0.0
2017-Oct-16 02:00N 36°56' W 076°20'0 0.0
2017-Oct-16 01:30N 36°56' W 076°20'0 0.0
2017-Oct-16 01:00N 36°56' W 076°20'0 0.0
2017-Oct-16 00:30N 36°56' W 076°20'0 0.0
2017-Oct-16 00:00N 36°56' W 076°20'0 0.0
2017-Oct-15 23:30N 36°56' W 076°20'0 0.0
2017-Oct-15 23:00N 36°56' W 076°20'0 0.0
2017-Oct-15 22:30N 36°56' W 076°20'0 0.0
2017-Oct-15 22:00N 36°56' W 076°20'0 0.0
2017-Oct-15 21:30N 36°56' W 076°20'0 0.0
2017-Oct-15 21:00N 36°56' W 076°20'0 0.0
2017-Oct-15 20:27N 36°56' W 076°20'0 0.0
2017-Oct-15 19:59N 36°56' W 076°20'0 0.0
2017-Oct-15 19:30N 36°56' W 076°20'0 0.0
2017-Oct-15 15:46N 36°56' W 076°20'0 0.0
2017-Oct-15 15:30N 36°56' W 076°20'0 0.0
2017-Oct-15 15:00N 36°56' W 076°20'0 0.0
2017-Oct-15 14:00N 36°56' W 076°20'0 0.0
2017-Oct-15 13:30N 36°56' W 076°20'0 0.0
2017-Oct-15 06:33N 36°56' W 076°20'0 0.0
2017-Oct-15 06:30N 36°56' W 076°20'0 0.0
2017-Oct-15 06:00N 36°56' W 076°20'0 0.0
2017-Oct-15 05:30N 36°56' W 076°20'0 0.0
2017-Oct-15 05:00N 36°56' W 076°20'0 0.0
2017-Oct-15 04:28N 36°56' W 076°20'0 0.0
2017-Oct-15 04:00N 36°56' W 076°20'0 0.0
2017-Oct-15 03:30N 36°56' W 076°20'0 0.0
2017-Oct-15 03:00N 36°56' W 076°20'0 0.0
2017-Oct-15 02:30N 36°56' W 076°20'0 0.0
2017-Oct-15 02:00N 36°56' W 076°20'0 0.0
2017-Oct-15 01:30N 36°56' W 076°20'0 0.0
2017-Oct-15 01:00N 36°56' W 076°20'0 0.0
2017-Oct-15 00:29N 36°56' W 076°20'0 0.0
2017-Oct-14 19:49N 36°56' W 076°20'0 0.0
2017-Oct-14 18:16N 36°56' W 076°20'0 0.0
2017-Oct-14 18:00N 36°56' W 076°20'0 0.0
2017-Oct-14 17:29N 36°56' W 076°20'0 0.0
2017-Oct-14 17:00N 36°56' W 076°20'0 0.0
2017-Oct-14 15:06N 36°56' W 076°20'0 0.0
2017-Oct-14 13:16N 36°56' W 076°20'0 0.0
2017-Oct-14 13:00N 36°56' W 076°20'0 0.0
2017-Oct-14 12:30N 36°56' W 076°20'0 0.1
2017-Oct-14 10:24N 36°56' W 076°20'1 3.0
2017-Oct-14 09:57N 36°57' W 076°20'107 7.3
2017-Oct-13 19:20N 38°44' W 076°27'3 8.3
2017-Oct-13 19:00N 38°47' W 076°27'4 8.4
2017-Oct-13 18:30N 38°51' W 076°26'4 8.4
2017-Oct-13 18:00N 38°55' W 076°25'4 7.7
2017-Oct-13 17:30N 38°59' W 076°23'4 7.4
2017-Oct-13 17:00N 39°02' W 076°23'4 7.8
2017-Oct-13 16:30N 39°06' W 076°24'4 7.6
2017-Oct-13 16:00N 39°10' W 076°25'4 7.5
2017-Oct-13 15:30N 39°12' W 076°29'4 7.6
2017-Oct-13 15:00N 39°14' W 076°33'2 3.7
2017-Oct-13 14:30N 39°16' W 076°34'0 0.1
2017-Oct-13 14:00N 39°16' W 076°34'0 0.0
2017-Oct-13 13:30N 39°16' W 076°34'0 0.0
2017-Oct-13 13:00N 39°16' W 076°34'0 0.0
2017-Oct-13 12:30N 39°16' W 076°34'0 0.0
2017-Oct-13 12:00N 39°16' W 076°34'0 0.0
2017-Oct-13 11:30N 39°16' W 076°34'0 0.0
2017-Oct-13 11:00N 39°16' W 076°34'0 0.0
2017-Oct-13 10:30N 39°16' W 076°34'0 0.0
2017-Oct-13 10:00N 39°16' W 076°34'0 0.0
2017-Oct-13 09:30N 39°16' W 076°34'0 0.0
2017-Oct-13 09:00N 39°16' W 076°34'0 0.0
2017-Oct-13 08:30N 39°16' W 076°34'0 0.0
2017-Oct-13 08:00N 39°16' W 076°34'0 0.0
2017-Oct-13 07:30N 39°16' W 076°34'0 0.0
2017-Oct-13 07:00N 39°16' W 076°34'0 0.0
2017-Oct-13 06:30N 39°16' W 076°34'0 0.0
2017-Oct-13 06:00N 39°16' W 076°34'0 0.0
2017-Oct-13 05:30N 39°16' W 076°34'0 0.0
2017-Oct-13 05:00N 39°16' W 076°34'0 0.0
2017-Oct-13 04:30N 39°16' W 076°34'0 0.0
2017-Oct-13 04:00N 39°16' W 076°34'0 0.0
2017-Oct-13 03:30N 39°16' W 076°34'0 0.0
2017-Oct-13 03:00N 39°16' W 076°34'0 0.0
2017-Oct-13 02:30N 39°16' W 076°34'0 0.0
2017-Oct-13 02:00N 39°16' W 076°34'0 0.0
2017-Oct-13 01:30N 39°16' W 076°34'0 0.0
2017-Oct-13 01:00N 39°16' W 076°34'0 0.0
2017-Oct-13 00:30N 39°16' W 076°34'0 0.0
2017-Oct-13 00:00N 39°16' W 076°34'0 0.0
2017-Oct-12 23:30N 39°16' W 076°34'0 0.0
2017-Oct-12 23:00N 39°16' W 076°34'0 0.0
2017-Oct-12 22:30N 39°16' W 076°34'0 0.0
2017-Oct-12 22:00N 39°16' W 076°34'0 0.0
2017-Oct-12 21:30N 39°16' W 076°34'0 0.0
2017-Oct-12 21:00N 39°16' W 076°34'0 0.0
2017-Oct-12 20:30N 39°16' W 076°34'0 0.0
2017-Oct-12 20:00N 39°16' W 076°34'0 0.0
2017-Oct-12 19:30N 39°16' W 076°34'0 0.0
2017-Oct-12 19:00N 39°16' W 076°34'0 0.0
2017-Oct-12 18:30N 39°16' W 076°34'0 0.0
2017-Oct-12 18:00N 39°16' W 076°34'0 0.0
2017-Oct-12 17:30N 39°16' W 076°34'0 0.0
2017-Oct-12 17:00N 39°16' W 076°34'0 0.0
2017-Oct-12 16:30N 39°16' W 076°34'0 0.0
2017-Oct-12 16:00N 39°16' W 076°34'0 0.0
2017-Oct-12 15:30N 39°16' W 076°34'0 0.0
2017-Oct-12 15:00N 39°16' W 076°34'0 0.1
2017-Oct-12 14:30N 39°16' W 076°34'0 0.5
2017-Oct-12 14:00N 39°16' W 076°34'3 6.4
2017-Oct-12 13:30N 39°13' W 076°32'  

Dump ship's entire track history